Ship Status Report: callsign CQHU

sailwx.info

Track history (hours):
 
Tides and Currents Weather Stations Pressure Air Temp Water Temp Dewpoint Dewpoint Depression Visibility Wind Speed Wind Dir Waves Ship Positions

Callsign CQHU (name unknown)

Last reported at 2018-Mar-29 19:00 UTC. Time now 2018-May-21 12:44 UTC.
Position N 53°35' E 008°32'.
Warning: this ship's position is 52 days out of date.

Date/timePositionNaut miles runAvg speedWind from/ knotsBaromVisibWave heightAir tempDewpointWater temp
2018-Mar-29 19:00N 53°35' E 008°32'0 0.1
2018-Mar-29 18:30N 53°35' E 008°32'1 2.1
2018-Mar-29 18:01N 53°35' E 008°31'2 4.7
2018-Mar-29 17:30N 53°37' E 008°28'714.2
2018-Mar-29 17:00N 53°42' E 008°20'714.3
2018-Mar-29 16:30N 53°46' E 008°10'713.3
2018-Mar-29 16:00N 53°51' E 008°02'713.3
2018-Mar-29 15:30N 53°52' E 007°50'4 8.4
2018-Mar-29 14:58N 53°53' E 007°43'3 6.0
2018-Mar-29 14:30N 53°54' E 007°39'7812.2
2018-Mar-29 08:08N 53°34' E 005°31'213.4
2018-Mar-29 08:00N 53°34' E 005°29'713.5
2018-Mar-29 07:29N 53°32' E 005°17'713.6
2018-Mar-29 07:00N 53°30' E 005°07'713.9
2018-Mar-29 06:30N 53°27' E 004°56'713.5
2018-Mar-29 06:00N 53°25' E 004°45'713.2
2018-Mar-29 05:28N 53°19' E 004°40'1514.8
2018-Mar-29 04:29N 53°06' E 004°28'715.4
2018-Mar-29 04:00N 52°59' E 004°21'714.9
2018-Mar-29 03:30N 52°53' E 004°17'2915.0
2018-Mar-29 01:35N 52°32' E 003°44'415.3
2018-Mar-29 01:19N 52°29' E 003°39'6714.4
2018-Mar-28 20:40N 51°53' E 002°08'214.2
2018-Mar-28 20:30N 51°52' E 002°05'714.0
2018-Mar-28 20:00N 51°49' E 001°54'713.6
2018-Mar-28 19:31N 51°49' E 001°43'713.1
2018-Mar-28 19:01N 51°52' E 001°34'510.2
2018-Mar-28 18:30N 51°56' E 001°29'612.3
2018-Mar-28 18:00N 51°56' E 001°19'2 2.8
2018-Mar-28 17:28N 51°58' E 001°18'0 0.0
2018-Mar-28 16:58N 51°58' E 001°18'0 0.0
2018-Mar-28 16:28N 51°58' E 001°18'0 0.0
2018-Mar-28 15:58N 51°58' E 001°18'0 0.0
2018-Mar-28 15:28N 51°58' E 001°18'0 0.0
2018-Mar-28 14:58N 51°58' E 001°18'0 0.0
2018-Mar-28 14:28N 51°58' E 001°18'0 0.0
2018-Mar-28 13:58N 51°58' E 001°18'0 0.0
2018-Mar-28 13:25N 51°58' E 001°18'0 0.0
2018-Mar-28 12:58N 51°58' E 001°18'0 0.0
2018-Mar-28 12:28N 51°58' E 001°18'0 0.0
2018-Mar-28 11:58N 51°58' E 001°18'0 0.0
2018-Mar-28 11:28N 51°58' E 001°18'0 0.0
2018-Mar-28 10:58N 51°58' E 001°18'0 0.0
2018-Mar-28 10:28N 51°58' E 001°18'0 0.0
2018-Mar-28 09:58N 51°58' E 001°18'0 0.0
2018-Mar-28 09:28N 51°58' E 001°18'0 0.0
2018-Mar-28 08:58N 51°58' E 001°18'0 0.0
2018-Mar-28 08:28N 51°58' E 001°18'0 0.0
2018-Mar-28 07:58N 51°58' E 001°18'0 0.0
2018-Mar-28 07:28N 51°58' E 001°18'0 0.0
2018-Mar-28 06:58N 51°58' E 001°18'0 0.0
2018-Mar-28 06:28N 51°58' E 001°18'0 0.0
2018-Mar-28 05:58N 51°58' E 001°18'0 0.0
2018-Mar-28 05:28N 51°58' E 001°18'0 0.0
2018-Mar-28 04:58N 51°58' E 001°18'0 0.0
2018-Mar-28 04:28N 51°58' E 001°18'0 0.0
2018-Mar-28 03:58N 51°58' E 001°18'0 0.0
2018-Mar-28 03:28N 51°58' E 001°18'0 0.0
2018-Mar-28 02:58N 51°58' E 001°18'0 0.0
2018-Mar-28 02:28N 51°58' E 001°18'0 0.0
2018-Mar-28 01:58N 51°58' E 001°18'0 0.0
2018-Mar-28 01:28N 51°58' E 001°18'0 0.0
2018-Mar-28 00:58N 51°58' E 001°18'0 0.0
2018-Mar-28 00:28N 51°58' E 001°18'0 0.0
2018-Mar-27 23:58N 51°58' E 001°18'0 0.0
2018-Mar-27 23:28N 51°58' E 001°18'0 0.0
2018-Mar-27 22:55N 51°58' E 001°18'0 0.0
2018-Mar-27 22:28N 51°58' E 001°18'0 0.0
2018-Mar-27 21:58N 51°58' E 001°18'0 0.0
2018-Mar-27 21:28N 51°58' E 001°18'0 0.0
2018-Mar-27 20:58N 51°58' E 001°18'0 0.0
2018-Mar-27 20:28N 51°58' E 001°18'0 0.0
2018-Mar-27 19:58N 51°58' E 001°18'0 0.0
2018-Mar-27 19:28N 51°58' E 001°18'0 0.0
2018-Mar-27 18:58N 51°58' E 001°18'0 0.0
2018-Mar-27 18:28N 51°58' E 001°18'0 0.0
2018-Mar-27 18:00N 51°58' E 001°18'0 1.0
2018-Mar-27 17:31N 51°57' E 001°18'2 4.2
2018-Mar-27 17:01N 51°55' E 001°20'714.1
2018-Mar-27 16:30N 51°56' E 001°32'611.4
2018-Mar-27 16:00N 51°52' E 001°37'3 6.5
2018-Mar-27 15:30N 51°52' E 001°42'3 5.3
2018-Mar-27 15:00N 51°51' E 001°47'4 8.6
2018-Mar-27 14:30N 51°47' E 001°49'611.8
2018-Mar-27 14:00N 51°41' E 001°49'612.5
2018-Mar-27 13:30N 51°35' E 001°50'612.9
2018-Mar-27 13:00N 51°29' E 001°54'612.5
2018-Mar-27 12:30N 51°25' E 002°02'612.5
2018-Mar-27 12:00N 51°23' E 002°11'611.8
2018-Mar-27 11:30N 51°21' E 002°21'611.6
2018-Mar-27 11:00N 51°23' E 002°30'611.6
2018-Mar-27 10:29N 51°23' E 002°39'612.1
2018-Mar-27 10:01N 51°22' E 002°48'714.7
2018-Mar-27 09:31N 51°24' E 002°60'714.2
2018-Mar-27 09:01N 51°24' E 003°11'714.1
2018-Mar-27 08:30N 51°25' E 003°23'713.4
2018-Mar-27 08:00N 51°26' E 003°33'4 7.2
2018-Mar-27 07:30N 51°26' E 003°39'612.0
2018-Mar-27 07:01N 51°22' E 003°45'612.7
2018-Mar-27 06:31N 51°22' E 003°56'5 9.6
2018-Mar-27 06:00N 51°25' E 004°02'510.4
2018-Mar-27 05:31N 51°23' E 004°09'5 9.2
2018-Mar-27 05:00N 51°21' E 004°16'3 6.6
2018-Mar-27 04:30N 51°17' E 004°16'0 0.9
2018-Mar-27 04:00N 51°17' E 004°15'0 0.0
2018-Mar-27 03:30N 51°17' E 004°15'0 0.0
2018-Mar-27 02:54N 51°17' E 004°15'0 0.0
2018-Mar-27 02:30N 51°17' E 004°15'0 0.0
2018-Mar-27 02:00N 51°17' E 004°15'0 0.0
2018-Mar-27 01:30N 51°17' E 004°15'0 0.0
2018-Mar-27 01:00N 51°17' E 004°15'0 0.0
2018-Mar-27 00:30N 51°17' E 004°15'0 0.0
2018-Mar-27 00:00N 51°17' E 004°15'0 0.0
2018-Mar-26 23:30N 51°17' E 004°15'0 0.0
2018-Mar-26 23:00N 51°17' E 004°15'0 0.0
2018-Mar-26 22:27N 51°17' E 004°15'0 0.0
2018-Mar-26 22:00N 51°17' E 004°15'0 0.0
2018-Mar-26 21:27N 51°17' E 004°15'0 0.0
2018-Mar-26 21:00N 51°17' E 004°15'0 0.0
2018-Mar-26 20:30N 51°17' E 004°15'0 0.0
2018-Mar-26 19:57N 51°17' E 004°15'0 0.0
2018-Mar-26 19:30N 51°17' E 004°15'0 0.0
2018-Mar-26 18:57N 51°17' E 004°15'0 0.0
2018-Mar-26 18:24N 51°17' E 004°15'0 0.0
2018-Mar-26 17:57N 51°17' E 004°15'0 0.0
2018-Mar-26 17:30N 51°17' E 004°15'0 0.0
2018-Mar-26 17:00N 51°17' E 004°15'0 0.0
2018-Mar-26 16:30N 51°17' E 004°15'0 0.0
2018-Mar-26 16:00N 51°17' E 004°15'0 0.0
2018-Mar-26 15:30N 51°17' E 004°15'0 0.0
2018-Mar-26 15:00N 51°17' E 004°15'0 0.0
2018-Mar-26 14:30N 51°17' E 004°15'0 0.0
2018-Mar-26 13:57N 51°17' E 004°15'0 0.0
2018-Mar-26 13:30N 51°17' E 004°15'0 0.0
2018-Mar-26 13:00N 51°17' E 004°15'0 0.0
2018-Mar-26 12:30N 51°17' E 004°15'0 0.0
2018-Mar-26 12:00N 51°17' E 004°15'0 0.0
2018-Mar-26 11:27N 51°17' E 004°15'0 0.0
2018-Mar-26 11:00N 51°17' E 004°15'0 0.0
2018-Mar-26 10:30N 51°17' E 004°15'0 0.0
2018-Mar-26 09:54N 51°17' E 004°15'0 0.0
2018-Mar-26 09:27N 51°17' E 004°15'0 0.0
2018-Mar-26 09:00N 51°17' E 004°15'0 0.0
2018-Mar-26 08:30N 51°17' E 004°15'0 0.0
2018-Mar-26 07:57N 51°17' E 004°15'0 0.0
2018-Mar-26 07:30N 51°17' E 004°15'0 0.0
2018-Mar-26 07:00N 51°17' E 004°15'0 0.0
2018-Mar-26 06:27N 51°17' E 004°15'0 0.0
2018-Mar-26 05:57N 51°17' E 004°15'0 0.0
2018-Mar-26 05:30N 51°17' E 004°15'0 0.0
2018-Mar-26 05:00N 51°17' E 004°15'0 0.0
2018-Mar-26 04:30N 51°17' E 004°15'0 0.0
2018-Mar-26 03:57N 51°17' E 004°15'0 0.0
2018-Mar-26 03:27N 51°17' E 004°15'0 0.0
2018-Mar-26 03:00N 51°17' E 004°15'0 0.0
2018-Mar-26 02:30N 51°17' E 004°15'0 0.0
2018-Mar-26 02:00N 51°17' E 004°15'0 0.0
2018-Mar-26 01:30N 51°17' E 004°15'0 0.0
2018-Mar-26 01:00N 51°17' E 004°15'0 0.0
2018-Mar-26 00:30N 51°17' E 004°15'0 0.0
2018-Mar-26 00:00N 51°17' E 004°15'0 0.0
2018-Mar-25 23:31N 51°17' E 004°15'1 1.4
2018-Mar-25 23:00N 51°18' E 004°16'1 2.5
2018-Mar-25 22:31N 51°19' E 004°16'3 6.4
2018-Mar-25 22:01N 51°22' E 004°14'5 9.4
2018-Mar-25 21:30N 51°22' E 004°06'611.6
2018-Mar-25 21:00N 51°26' E 003°59'713.3
2018-Mar-25 20:30N 51°21' E 003°53'612.7
2018-Mar-25 20:01N 51°23' E 003°43'510.6
2018-Mar-25 19:30N 51°26' E 003°35'4 8.5
2018-Mar-25 19:00N 51°25' E 003°29'714.8
2018-Mar-25 18:30N 51°24' E 003°17'917.3
2018-Mar-25 18:00N 51°24' E 003°03'917.0
2018-Mar-25 17:30N 51°25' E 002°50'611.3
2018-Mar-25 17:00N 51°22' E 002°42'3 5.5
2018-Mar-25 16:30N 51°22' E 002°38'3 5.7
2018-Mar-25 16:00N 51°24' E 002°35'0 0.5
2018-Mar-25 15:25N 51°24' E 002°34'0 0.0
2018-Mar-25 14:58N 51°24' E 002°34'0 0.0
2018-Mar-25 14:25N 51°24' E 002°34'0 0.0
2018-Mar-25 13:55N 51°24' E 002°34'0 0.0
2018-Mar-25 13:13N 51°24' E 002°34'0 0.0
2018-Mar-25 12:52N 51°24' E 002°34'0 0.0
2018-Mar-25 12:28N 51°24' E 002°34'0 0.0
2018-Mar-25 11:58N 51°24' E 002°34'0 0.1
2018-Mar-25 11:25N 51°24' E 002°34'0 0.0
2018-Mar-25 10:52N 51°24' E 002°34'0 0.3
2018-Mar-25 10:13N 51°24' E 002°34'0 0.1
2018-Mar-25 09:52N 51°24' E 002°34'0 0.1
2018-Mar-25 09:22N 51°24' E 002°35'0 0.1
2018-Mar-25 08:58N 51°24' E 002°34'0 0.0
2018-Mar-25 08:28N 51°24' E 002°34'0 0.0
2018-Mar-25 07:58N 51°24' E 002°34'0 0.0
2018-Mar-25 07:28N 51°24' E 002°34'0 0.0
2018-Mar-25 06:55N 51°24' E 002°34'0 0.0
2018-Mar-25 06:28N 51°24' E 002°34'0 0.0
2018-Mar-25 05:58N 51°24' E 002°34'0 0.0
2018-Mar-25 05:28N 51°24' E 002°34'0 0.1
2018-Mar-25 04:55N 51°24' E 002°35'0 0.2
2018-Mar-25 04:28N 51°24' E 002°34'0 0.2
2018-Mar-25 03:58N 51°24' E 002°34'0 0.1
2018-Mar-25 03:28N 51°24' E 002°34'0 0.1
2018-Mar-25 02:58N 51°24' E 002°34'0 0.0
2018-Mar-25 02:22N 51°24' E 002°34'0 0.0
2018-Mar-25 01:43N 51°24' E 002°34'0 0.0
2018-Mar-25 01:28N 51°24' E 002°34'0 0.0
2018-Mar-25 00:55N 51°24' E 002°34'0 0.0
2018-Mar-25 00:28N 51°24' E 002°34'0 0.0
2018-Mar-24 23:58N 51°24' E 002°34'0 0.2
2018-Mar-24 23:29N 51°24' E 002°34'2 3.3
2018-Mar-24 23:00N 51°23' E 002°32'4 7.9
2018-Mar-24 22:30N 51°21' E 002°27'5 9.8
2018-Mar-24 22:00N 51°19' E 002°20'510.2
2018-Mar-24 21:30N 51°16' E 002°13'510.6
2018-Mar-24 21:00N 51°14' E 002°05'510.7
2018-Mar-24 20:31N 51°11' E 001°58'611.0
2018-Mar-24 20:00N 51°09' E 001°50'611.3
2018-Mar-24 19:30N 51°05' E 001°43'611.6
2018-Mar-24 19:00N 51°01' E 001°36'612.5
2018-Mar-24 18:31N 50°57' E 001°29'712.6
2018-Mar-24 17:55N 50°50' E 001°25'911.7
2018-Mar-24 17:08N 50°41' E 001°19'1411.3
2018-Mar-24 15:52N 50°31' E 001°03'410.8
2018-Mar-24 15:27N 50°29' E 000°57'611.1
2018-Mar-24 14:55N 50°27' E 000°48'1111.7
2018-Mar-24 13:59N 50°24' E 000°32'4711.5
2018-Mar-24 09:53N 50°12' W 000°40'5 9.9
2018-Mar-24 09:21N 50°11' W 000°48'4 9.5
2018-Mar-24 08:57N 50°10' W 000°54'4 9.0
2018-Mar-24 08:30N 50°09' W 000°60'4 8.4
2018-Mar-24 07:59N 50°08' W 001°06'4 8.0
2018-Mar-24 07:26N 50°07' W 001°13'3 7.7
2018-Mar-24 07:00N 50°07' W 001°18'4 7.3
2018-Mar-24 06:30N 50°06' W 001°24'4 7.4
2018-Mar-24 06:00N 50°05' W 001°29'4 7.3
2018-Mar-24 05:30N 50°04' W 001°35'4 7.6
2018-Mar-24 05:00N 50°03' W 001°40'4 7.9
2018-Mar-24 04:30N 50°02' W 001°46'4 8.6
2018-Mar-24 04:00N 50°00' W 001°53'5 9.2
2018-Mar-24 03:30N 49°59' W 001°60'510.0
2018-Mar-24 03:00N 49°58' W 002°07'610.8
2018-Mar-24 02:27N 49°56' W 002°16'911.2
2018-Mar-24 01:40N 49°54' W 002°29'711.3
2018-Mar-24 01:01N 49°52' W 002°40'111.4
2018-Mar-24 00:57N 49°52' W 002°41'511.4
2018-Mar-24 00:30N 49°50' W 002°49'911.4
2018-Mar-23 23:44N 49°48' W 003°02'311.4
2018-Mar-23 23:28N 49°47' W 003°07'511.3
2018-Mar-23 23:00N 49°46' W 003°14'711.2
2018-Mar-23 22:22N 49°43' W 003°25'  
2018-Mar-21 03:15N 38°48' W 025°35'417.6
2018-Mar-21 03:00N 38°46' W 025°40'2417.5
2018-Mar-21 01:38N 38°32' W 026°05'316.2
2018-Mar-21 01:27N 38°30' W 026°08'714.8
2018-Mar-21 00:58N 38°26' W 026°15'714.4
2018-Mar-21 00:31N 38°22' W 026°22'714.5
2018-Mar-21 00:01N 38°18' W 026°30'714.4
2018-Mar-20 23:31N 38°15' W 026°38'714.8
2018-Mar-20 23:01N 38°11' W 026°46'714.5
2018-Mar-20 22:30N 38°07' W 026°54'714.6
2018-Mar-20 22:01N 38°04' W 027°02'714.5
2018-Mar-20 21:31N 38°00' W 027°10'714.7
2018-Mar-20 21:00N 37°57' W 027°19'714.5
2018-Mar-20 20:30N 37°53' W 027°27'714.5
2018-Mar-20 20:01N 37°50' W 027°35'714.4
2018-Mar-20 19:30N 37°48' W 027°44'714.4
2018-Mar-20 19:00N 37°46' W 027°53'714.5
2018-Mar-20 18:30N 37°44' W 028°01'714.3
2018-Mar-20 18:00N 37°41' W 028°10'714.1
2018-Mar-20 17:30N 37°39' W 028°18'714.1
2018-Mar-20 17:00N 37°37' W 028°26'714.3
2018-Mar-20 16:30N 37°35' W 028°35'714.3
2018-Mar-20 16:00N 37°32' W 028°44'714.4
2018-Mar-20 15:31N 37°30' W 028°52'714.6
2018-Mar-20 15:00N 37°27' W 029°01'714.2
2018-Mar-20 14:30N 37°25' W 029°09'713.9
2018-Mar-20 14:00N 37°23' W 029°18'713.7
2018-Mar-20 13:30N 37°21' W 029°26'814.1
2018-Mar-20 12:57N 37°18' W 029°35'  
Track history (hours):
 
Tides and Currents Weather Stations Pressure Air Temp Water Temp Dewpoint Dewpoint Depression Visibility Wind Speed Wind Dir Waves Ship Positions

Callsign CQHU (name unknown)

Last reported at 2018-Mar-29 19:00 UTC. Time now 2018-May-21 12:44 UTC.
Position N 53°35' E 008°32'.
Warning: this ship's position is 52 days out of date.

Date/timePositionNaut miles runAvg speedWind from/ knotsBaromVisibWave heightAir tempDewpointWater temp
2018-Mar-29 19:00N 53°35' E 008°32'0 0.1
2018-Mar-29 18:30N 53°35' E 008°32'1 2.1
2018-Mar-29 18:01N 53°35' E 008°31'2 4.7
2018-Mar-29 17:30N 53°37' E 008°28'714.2
2018-Mar-29 17:00N 53°42' E 008°20'714.3
2018-Mar-29 16:30N 53°46' E 008°10'713.3
2018-Mar-29 16:00N 53°51' E 008°02'713.3
2018-Mar-29 15:30N 53°52' E 007°50'4 8.4
2018-Mar-29 14:58N 53°53' E 007°43'3 6.0
2018-Mar-29 14:30N 53°54' E 007°39'7812.2
2018-Mar-29 08:08N 53°34' E 005°31'213.4
2018-Mar-29 08:00N 53°34' E 005°29'713.5
2018-Mar-29 07:29N 53°32' E 005°17'713.6
2018-Mar-29 07:00N 53°30' E 005°07'713.9
2018-Mar-29 06:30N 53°27' E 004°56'713.5
2018-Mar-29 06:00N 53°25' E 004°45'713.2
2018-Mar-29 05:28N 53°19' E 004°40'1514.8
2018-Mar-29 04:29N 53°06' E 004°28'715.4
2018-Mar-29 04:00N 52°59' E 004°21'714.9
2018-Mar-29 03:30N 52°53' E 004°17'2915.0
2018-Mar-29 01:35N 52°32' E 003°44'415.3
2018-Mar-29 01:19N 52°29' E 003°39'6714.4
2018-Mar-28 20:40N 51°53' E 002°08'214.2
2018-Mar-28 20:30N 51°52' E 002°05'714.0
2018-Mar-28 20:00N 51°49' E 001°54'713.6
2018-Mar-28 19:31N 51°49' E 001°43'713.1
2018-Mar-28 19:01N 51°52' E 001°34'510.2
2018-Mar-28 18:30N 51°56' E 001°29'612.3
2018-Mar-28 18:00N 51°56' E 001°19'2 2.8
2018-Mar-28 17:28N 51°58' E 001°18'0 0.0
2018-Mar-28 16:58N 51°58' E 001°18'0 0.0
2018-Mar-28 16:28N 51°58' E 001°18'0 0.0
2018-Mar-28 15:58N 51°58' E 001°18'0 0.0
2018-Mar-28 15:28N 51°58' E 001°18'0 0.0
2018-Mar-28 14:58N 51°58' E 001°18'0 0.0
2018-Mar-28 14:28N 51°58' E 001°18'0 0.0
2018-Mar-28 13:58N 51°58' E 001°18'0 0.0
2018-Mar-28 13:25N 51°58' E 001°18'0 0.0
2018-Mar-28 12:58N 51°58' E 001°18'0 0.0
2018-Mar-28 12:28N 51°58' E 001°18'0 0.0
2018-Mar-28 11:58N 51°58' E 001°18'0 0.0
2018-Mar-28 11:28N 51°58' E 001°18'0 0.0
2018-Mar-28 10:58N 51°58' E 001°18'0 0.0
2018-Mar-28 10:28N 51°58' E 001°18'0 0.0
2018-Mar-28 09:58N 51°58' E 001°18'0 0.0
2018-Mar-28 09:28N 51°58' E 001°18'0 0.0
2018-Mar-28 08:58N 51°58' E 001°18'0 0.0
2018-Mar-28 08:28N 51°58' E 001°18'0 0.0
2018-Mar-28 07:58N 51°58' E 001°18'0 0.0
2018-Mar-28 07:28N 51°58' E 001°18'0 0.0
2018-Mar-28 06:58N 51°58' E 001°18'0 0.0
2018-Mar-28 06:28N 51°58' E 001°18'0 0.0
2018-Mar-28 05:58N 51°58' E 001°18'0 0.0
2018-Mar-28 05:28N 51°58' E 001°18'0 0.0
2018-Mar-28 04:58N 51°58' E 001°18'0 0.0
2018-Mar-28 04:28N 51°58' E 001°18'0 0.0
2018-Mar-28 03:58N 51°58' E 001°18'0 0.0
2018-Mar-28 03:28N 51°58' E 001°18'0 0.0
2018-Mar-28 02:58N 51°58' E 001°18'0 0.0
2018-Mar-28 02:28N 51°58' E 001°18'0 0.0
2018-Mar-28 01:58N 51°58' E 001°18'0 0.0
2018-Mar-28 01:28N 51°58' E 001°18'0 0.0
2018-Mar-28 00:58N 51°58' E 001°18'0 0.0
2018-Mar-28 00:28N 51°58' E 001°18'0 0.0
2018-Mar-27 23:58N 51°58' E 001°18'0 0.0
2018-Mar-27 23:28N 51°58' E 001°18'0 0.0
2018-Mar-27 22:55N 51°58' E 001°18'0 0.0
2018-Mar-27 22:28N 51°58' E 001°18'0 0.0
2018-Mar-27 21:58N 51°58' E 001°18'0 0.0
2018-Mar-27 21:28N 51°58' E 001°18'0 0.0
2018-Mar-27 20:58N 51°58' E 001°18'0 0.0
2018-Mar-27 20:28N 51°58' E 001°18'0 0.0
2018-Mar-27 19:58N 51°58' E 001°18'0 0.0
2018-Mar-27 19:28N 51°58' E 001°18'0 0.0
2018-Mar-27 18:58N 51°58' E 001°18'0 0.0
2018-Mar-27 18:28N 51°58' E 001°18'0 0.0
2018-Mar-27 18:00N 51°58' E 001°18'0 1.0
2018-Mar-27 17:31N 51°57' E 001°18'2 4.2
2018-Mar-27 17:01N 51°55' E 001°20'714.1
2018-Mar-27 16:30N 51°56' E 001°32'611.4
2018-Mar-27 16:00N 51°52' E 001°37'3 6.5
2018-Mar-27 15:30N 51°52' E 001°42'3 5.3
2018-Mar-27 15:00N 51°51' E 001°47'4 8.6
2018-Mar-27 14:30N 51°47' E 001°49'611.8
2018-Mar-27 14:00N 51°41' E 001°49'612.5
2018-Mar-27 13:30N 51°35' E 001°50'612.9
2018-Mar-27 13:00N 51°29' E 001°54'612.5
2018-Mar-27 12:30N 51°25' E 002°02'612.5
2018-Mar-27 12:00N 51°23' E 002°11'611.8
2018-Mar-27 11:30N 51°21' E 002°21'611.6
2018-Mar-27 11:00N 51°23' E 002°30'611.6
2018-Mar-27 10:29N 51°23' E 002°39'612.1
2018-Mar-27 10:01N 51°22' E 002°48'714.7
2018-Mar-27 09:31N 51°24' E 002°60'714.2
2018-Mar-27 09:01N 51°24' E 003°11'714.1
2018-Mar-27 08:30N 51°25' E 003°23'713.4
2018-Mar-27 08:00N 51°26' E 003°33'4 7.2
2018-Mar-27 07:30N 51°26' E 003°39'612.0
2018-Mar-27 07:01N 51°22' E 003°45'612.7
2018-Mar-27 06:31N 51°22' E 003°56'5 9.6
2018-Mar-27 06:00N 51°25' E 004°02'510.4
2018-Mar-27 05:31N 51°23' E 004°09'5 9.2
2018-Mar-27 05:00N 51°21' E 004°16'3 6.6
2018-Mar-27 04:30N 51°17' E 004°16'0 0.9
2018-Mar-27 04:00N 51°17' E 004°15'0 0.0
2018-Mar-27 03:30N 51°17' E 004°15'0 0.0
2018-Mar-27 02:54N 51°17' E 004°15'0 0.0
2018-Mar-27 02:30N 51°17' E 004°15'0 0.0
2018-Mar-27 02:00N 51°17' E 004°15'0 0.0
2018-Mar-27 01:30N 51°17' E 004°15'0 0.0
2018-Mar-27 01:00N 51°17' E 004°15'0 0.0
2018-Mar-27 00:30N 51°17' E 004°15'0 0.0
2018-Mar-27 00:00N 51°17' E 004°15'0 0.0
2018-Mar-26 23:30N 51°17' E 004°15'0 0.0
2018-Mar-26 23:00N 51°17' E 004°15'0 0.0
2018-Mar-26 22:27N 51°17' E 004°15'0 0.0
2018-Mar-26 22:00N 51°17' E 004°15'0 0.0
2018-Mar-26 21:27N 51°17' E 004°15'0 0.0
2018-Mar-26 21:00N 51°17' E 004°15'0 0.0
2018-Mar-26 20:30N 51°17' E 004°15'0 0.0
2018-Mar-26 19:57N 51°17' E 004°15'0 0.0
2018-Mar-26 19:30N 51°17' E 004°15'0 0.0
2018-Mar-26 18:57N 51°17' E 004°15'0 0.0
2018-Mar-26 18:24N 51°17' E 004°15'0 0.0
2018-Mar-26 17:57N 51°17' E 004°15'0 0.0
2018-Mar-26 17:30N 51°17' E 004°15'0 0.0
2018-Mar-26 17:00N 51°17' E 004°15'0 0.0
2018-Mar-26 16:30N 51°17' E 004°15'0 0.0
2018-Mar-26 16:00N 51°17' E 004°15'0 0.0
2018-Mar-26 15:30N 51°17' E 004°15'0 0.0
2018-Mar-26 15:00N 51°17' E 004°15'0 0.0
2018-Mar-26 14:30N 51°17' E 004°15'0 0.0
2018-Mar-26 13:57N 51°17' E 004°15'0 0.0
2018-Mar-26 13:30N 51°17' E 004°15'0 0.0
2018-Mar-26 13:00N 51°17' E 004°15'0 0.0
2018-Mar-26 12:30N 51°17' E 004°15'0 0.0
2018-Mar-26 12:00N 51°17' E 004°15'0 0.0
2018-Mar-26 11:27N 51°17' E 004°15'0 0.0
2018-Mar-26 11:00N 51°17' E 004°15'0 0.0
2018-Mar-26 10:30N 51°17' E 004°15'0 0.0
2018-Mar-26 09:54N 51°17' E 004°15'0 0.0
2018-Mar-26 09:27N 51°17' E 004°15'0 0.0
2018-Mar-26 09:00N 51°17' E 004°15'0 0.0
2018-Mar-26 08:30N 51°17' E 004°15'0 0.0
2018-Mar-26 07:57N 51°17' E 004°15'0 0.0
2018-Mar-26 07:30N 51°17' E 004°15'0 0.0
2018-Mar-26 07:00N 51°17' E 004°15'0 0.0
2018-Mar-26 06:27N 51°17' E 004°15'0 0.0
2018-Mar-26 05:57N 51°17' E 004°15'0 0.0
2018-Mar-26 05:30N 51°17' E 004°15'0 0.0
2018-Mar-26 05:00N 51°17' E 004°15'0 0.0
2018-Mar-26 04:30N 51°17' E 004°15'0 0.0
2018-Mar-26 03:57N 51°17' E 004°15'0 0.0
2018-Mar-26 03:27N 51°17' E 004°15'0 0.0
2018-Mar-26 03:00N 51°17' E 004°15'0 0.0
2018-Mar-26 02:30N 51°17' E 004°15'0 0.0
2018-Mar-26 02:00N 51°17' E 004°15'0 0.0
2018-Mar-26 01:30N 51°17' E 004°15'0 0.0
2018-Mar-26 01:00N 51°17' E 004°15'0 0.0
2018-Mar-26 00:30N 51°17' E 004°15'0 0.0
2018-Mar-26 00:00N 51°17' E 004°15'0 0.0
2018-Mar-25 23:31N 51°17' E 004°15'1 1.4
2018-Mar-25 23:00N 51°18' E 004°16'1 2.5
2018-Mar-25 22:31N 51°19' E 004°16'3 6.4
2018-Mar-25 22:01N 51°22' E 004°14'5 9.4
2018-Mar-25 21:30N 51°22' E 004°06'611.6
2018-Mar-25 21:00N 51°26' E 003°59'713.3
2018-Mar-25 20:30N 51°21' E 003°53'612.7
2018-Mar-25 20:01N 51°23' E 003°43'510.6
2018-Mar-25 19:30N 51°26' E 003°35'4 8.5
2018-Mar-25 19:00N 51°25' E 003°29'714.8
2018-Mar-25 18:30N 51°24' E 003°17'917.3
2018-Mar-25 18:00N 51°24' E 003°03'917.0
2018-Mar-25 17:30N 51°25' E 002°50'611.3
2018-Mar-25 17:00N 51°22' E 002°42'3 5.5
2018-Mar-25 16:30N 51°22' E 002°38'3 5.7
2018-Mar-25 16:00N 51°24' E 002°35'0 0.5
2018-Mar-25 15:25N 51°24' E 002°34'0 0.0
2018-Mar-25 14:58N 51°24' E 002°34'0 0.0
2018-Mar-25 14:25N 51°24' E 002°34'0 0.0
2018-Mar-25 13:55N 51°24' E 002°34'0 0.0
2018-Mar-25 13:13N 51°24' E 002°34'0 0.0
2018-Mar-25 12:52N 51°24' E 002°34'0 0.0
2018-Mar-25 12:28N 51°24' E 002°34'0 0.0
2018-Mar-25 11:58N 51°24' E 002°34'0 0.1
2018-Mar-25 11:25N 51°24' E 002°34'0 0.0
2018-Mar-25 10:52N 51°24' E 002°34'0 0.3
2018-Mar-25 10:13N 51°24' E 002°34'0 0.1
2018-Mar-25 09:52N 51°24' E 002°34'0 0.1
2018-Mar-25 09:22N 51°24' E 002°35'0 0.1
2018-Mar-25 08:58N 51°24' E 002°34'0 0.0
2018-Mar-25 08:28N 51°24' E 002°34'0 0.0
2018-Mar-25 07:58N 51°24' E 002°34'0 0.0
2018-Mar-25 07:28N 51°24' E 002°34'0 0.0
2018-Mar-25 06:55N 51°24' E 002°34'0 0.0
2018-Mar-25 06:28N 51°24' E 002°34'0 0.0
2018-Mar-25 05:58N 51°24' E 002°34'0 0.0
2018-Mar-25 05:28N 51°24' E 002°34'0 0.1
2018-Mar-25 04:55N 51°24' E 002°35'0 0.2
2018-Mar-25 04:28N 51°24' E 002°34'0 0.2
2018-Mar-25 03:58N 51°24' E 002°34'0 0.1
2018-Mar-25 03:28N 51°24' E 002°34'0 0.1
2018-Mar-25 02:58N 51°24' E 002°34'0 0.0
2018-Mar-25 02:22N 51°24' E 002°34'0 0.0
2018-Mar-25 01:43N 51°24' E 002°34'0 0.0
2018-Mar-25 01:28N 51°24' E 002°34'0 0.0
2018-Mar-25 00:55N 51°24' E 002°34'0 0.0
2018-Mar-25 00:28N 51°24' E 002°34'0 0.0
2018-Mar-24 23:58N 51°24' E 002°34'0 0.2
2018-Mar-24 23:29N 51°24' E 002°34'2 3.3
2018-Mar-24 23:00N 51°23' E 002°32'4 7.9
2018-Mar-24 22:30N 51°21' E 002°27'5 9.8
2018-Mar-24 22:00N 51°19' E 002°20'510.2
2018-Mar-24 21:30N 51°16' E 002°13'510.6
2018-Mar-24 21:00N 51°14' E 002°05'510.7
2018-Mar-24 20:31N 51°11' E 001°58'611.0
2018-Mar-24 20:00N 51°09' E 001°50'611.3
2018-Mar-24 19:30N 51°05' E 001°43'611.6
2018-Mar-24 19:00N 51°01' E 001°36'612.5
2018-Mar-24 18:31N 50°57' E 001°29'712.6
2018-Mar-24 17:55N 50°50' E 001°25'911.7
2018-Mar-24 17:08N 50°41' E 001°19'1411.3
2018-Mar-24 15:52N 50°31' E 001°03'410.8
2018-Mar-24 15:27N 50°29' E 000°57'611.1
2018-Mar-24 14:55N 50°27' E 000°48'1111.7
2018-Mar-24 13:59N 50°24' E 000°32'4711.5
2018-Mar-24 09:53N 50°12' W 000°40'5 9.9
2018-Mar-24 09:21N 50°11' W 000°48'4 9.5
2018-Mar-24 08:57N 50°10' W 000°54'4 9.0
2018-Mar-24 08:30N 50°09' W 000°60'4 8.4
2018-Mar-24 07:59N 50°08' W 001°06'4 8.0
2018-Mar-24 07:26N 50°07' W 001°13'3 7.7
2018-Mar-24 07:00N 50°07' W 001°18'4 7.3
2018-Mar-24 06:30N 50°06' W 001°24'4 7.4
2018-Mar-24 06:00N 50°05' W 001°29'4 7.3
2018-Mar-24 05:30N 50°04' W 001°35'4 7.6
2018-Mar-24 05:00N 50°03' W 001°40'4 7.9
2018-Mar-24 04:30N 50°02' W 001°46'4 8.6
2018-Mar-24 04:00N 50°00' W 001°53'5 9.2
2018-Mar-24 03:30N 49°59' W 001°60'510.0
2018-Mar-24 03:00N 49°58' W 002°07'610.8
2018-Mar-24 02:27N 49°56' W 002°16'911.2
2018-Mar-24 01:40N 49°54' W 002°29'711.3
2018-Mar-24 01:01N 49°52' W 002°40'111.4
2018-Mar-24 00:57N 49°52' W 002°41'511.4
2018-Mar-24 00:30N 49°50' W 002°49'911.4
2018-Mar-23 23:44N 49°48' W 003°02'311.4
2018-Mar-23 23:28N 49°47' W 003°07'511.3
2018-Mar-23 23:00N 49°46' W 003°14'711.2
2018-Mar-23 22:22N 49°43' W 003°25'  
2018-Mar-21 03:15N 38°48' W 025°35'417.6
2018-Mar-21 03:00N 38°46' W 025°40'2417.5
2018-Mar-21 01:38N 38°32' W 026°05'316.2
2018-Mar-21 01:27N 38°30' W 026°08'714.8
2018-Mar-21 00:58N 38°26' W 026°15'714.4
2018-Mar-21 00:31N 38°22' W 026°22'714.5
2018-Mar-21 00:01N 38°18' W 026°30'714.4
2018-Mar-20 23:31N 38°15' W 026°38'714.8
2018-Mar-20 23:01N 38°11' W 026°46'714.5
2018-Mar-20 22:30N 38°07' W 026°54'714.6
2018-Mar-20 22:01N 38°04' W 027°02'714.5
2018-Mar-20 21:31N 38°00' W 027°10'714.7
2018-Mar-20 21:00N 37°57' W 027°19'714.5
2018-Mar-20 20:30N 37°53' W 027°27'714.5
2018-Mar-20 20:01N 37°50' W 027°35'714.4
2018-Mar-20 19:30N 37°48' W 027°44'714.4
2018-Mar-20 19:00N 37°46' W 027°53'714.5
2018-Mar-20 18:30N 37°44' W 028°01'714.3
2018-Mar-20 18:00N 37°41' W 028°10'714.1
2018-Mar-20 17:30N 37°39' W 028°18'714.1
2018-Mar-20 17:00N 37°37' W 028°26'714.3
2018-Mar-20 16:30N 37°35' W 028°35'714.3
2018-Mar-20 16:00N 37°32' W 028°44'714.4
2018-Mar-20 15:31N 37°30' W 028°52'714.6
2018-Mar-20 15:00N 37°27' W 029°01'714.2
2018-Mar-20 14:30N 37°25' W 029°09'713.9
2018-Mar-20 14:00N 37°23' W 029°18'713.7
2018-Mar-20 13:30N 37°21' W 029°26'814.1
2018-Mar-20 12:57N 37°18' W 029°35'  

Dump ship's entire track history